Flight Track Log - Related Links

Times and Time Zones

All times are in EDT time to prevent confusion due to time zone crossing. See the FLG3429 flight status page for this flight to view local times or setup timezone preferences in your user account.

Time Position Orientation Groundspeed Altitude Reporting Facility
EDT Latitude Longitude Course Direction KTS MPH feet Rate Location/Type
Tue 04:12:05 PM 46.2119 -119.1542 72° East 177 204 3,400  Level Seattle Center
Tue 04:13:06 PM 46.2056 -119.0536 95° East 271 312 5,300 2,293 Climbing Seattle Center
Tue 04:14:00 PM 46.4074 -118.4381 73° East  Level FlightAware Approximate
Tue 04:14:08 PM 46.2344 -118.9475 68° East 284 327 8,100  Level Seattle Center
Tue 04:15:00 PM 46.4447 -118.2662 72° East  Level FlightAware Approximate
Tue 04:15:09 PM 46.2631 -118.8108 73° East 298 343 10,800  Level Seattle Center
Tue 04:16:00 PM 46.4829 -118.0946 72° East  Level FlightAware Approximate
Tue 04:16:10 PM 46.2789 -118.6722 81° East 335 386 12,600  Level Seattle Center
Tue 04:17:00 PM 46.5209 -117.9232 72° East  Level FlightAware Approximate
Tue 04:17:11 PM 46.2953 -118.5269 81° East 360 414 14,800  Level Seattle Center
Tue 04:18:12 PM 46.3136 -118.3739 80° East 381 438 16,900 1,967 Climbing Seattle Center
Tue 04:19:13 PM 46.3314 -118.2156 81° East 397 457 18,800 1,770 Climbing Seattle Center
Tue 04:20:14 PM 46.3492 -118.0539 81° East 407 468 20,500 1,820 Climbing Seattle Center
Tue 04:21:15 PM 46.3689 -117.8886 80° East 415 478 22,500 1,770 Climbing Seattle Center
Tue 04:22:16 PM 46.3867 -117.7197 81° East 424 488 24,100 1,377 Climbing Seattle Center
Tue 04:23:17 PM 46.4047 -117.5494 81° East 430 495 25,300 1,328 Climbing Seattle Center
Tue 04:24:18 PM 46.4275 -117.3394 81° East 440 506 26,800 1,377 Climbing Seattle Center
Tue 04:25:19 PM 46.4467 -117.1606 81° East 449 517 28,100 1,180 Climbing Seattle Center
Tue 04:26:20 PM 46.4650 -116.9767 82° East 460 529 29,200 1,279 Climbing Seattle Center
Tue 04:27:21 PM 46.4847 -116.7881 81° East 472 543 30,700 1,426 Climbing Seattle Center
Tue 04:28:22 PM 46.5033 -116.6056 82° East 465 535 32,100 1,328 Climbing Seattle Center
Tue 04:29:23 PM 46.5200 -116.4256 82° East 456 525 33,400 1,082 Climbing Seattle Center
Tue 04:30:24 PM 46.5378 -116.2458 82° East 454 522 34,300 836 Climbing Seattle Center
Tue 04:31:25 PM 46.5550 -116.0628 82° East 457 526 35,100 885 Climbing Seattle Center
Tue 04:32:26 PM 46.5722 -115.8794 82° East 461 531 36,100 934 Climbing Seattle Center
Tue 04:33:27 PM 46.5889 -115.7011 82° East 452 520 37,000 443 Climbing Seattle Center
Tue 04:34:28 PM 46.6056 -115.5197 82° East 453 521 37,000  Level Seattle Center
Tue 04:35:29 PM 46.6256 -115.2917 83° East 471 542 37,000  Level Seattle Center
Tue 04:36:30 PM 46.6422 -115.0997 83° East 478 550 37,000  Level Seattle Center
Tue 04:37:31 PM 46.6567 -114.9311 83° East 478 550 37,000  Level Seattle Center
Tue 04:37:47 PM 46.6642 -114.8536 82° East 481 554 37,000  Level Salt Lake Center
Tue 04:38:48 PM 46.6797 -114.6639 83° East 476 548 37,000  Level Salt Lake Center
Tue 04:39:50 PM 46.6953 -114.4703 83° East 483 556 37,000  Level Salt Lake Center
Tue 04:40:52 PM 46.7103 -114.2769 83° East 484 557 37,000  Level Salt Lake Center
Tue 04:41:54 PM 46.7258 -114.0806 83° East 490 564 37,000  Level Salt Lake Center
Tue 04:42:55 PM 46.7406 -113.8828 84° East 494 568 37,000  Level Salt Lake Center
Tue 04:43:57 PM 46.7589 -113.6442 84° East 497 572 37,000  Level Salt Lake Center
Tue 04:44:59 PM 46.7733 -113.4456 84° East 496 571 37,000  Level Salt Lake Center
Tue 04:46:01 PM 46.7881 -113.2486 84° East 493 567 37,000  Level Salt Lake Center
Tue 04:47:02 PM 46.8014 -113.0522 84° East 489 563 37,000  Level Salt Lake Center
Tue 04:48:04 PM 46.8167 -112.8311 84° East 490 564 37,000  Level Salt Lake Center
Tue 04:49:06 PM 46.8303 -112.6356 84° East 487 560 37,000  Level Salt Lake Center
Tue 04:50:08 PM 46.8419 -112.4392 85° East 488 562 37,000  Level Salt Lake Center
Tue 04:51:09 PM 46.8539 -112.2439 85° East 486 559 37,000  Level Salt Lake Center
Tue 04:52:11 PM 46.8658 -112.0519 85° East 482 555 37,000  Level Salt Lake Center
Tue 04:53:13 PM 46.8764 -111.8603 85° East 477 549 37,000  Level Salt Lake Center
Tue 04:54:14 PM 46.8886 -111.6344 85° East 470 541 37,000  Level Salt Lake Center
Tue 04:55:16 PM 46.8994 -111.4439 85° East 471 542 37,000  Level Salt Lake Center
Tue 04:56:18 PM 46.9106 -111.2519 85° East 476 548 37,000  Level Salt Lake Center
Tue 04:57:19 PM 46.9197 -111.0564 86° East 482 555 37,000 -48 Level Salt Lake Center
Tue 04:58:22 PM 46.9297 -110.8586 86° East 490 564 36,900  Descending Salt Lake Center
Tue 04:59:23 PM 46.9392 -110.6631 86° East 489 563 37,000 98 Climbing Salt Lake Center
Tue 05:00:25 PM 46.9497 -110.4317 86° East 481 554 37,100  Climbing Salt Lake Center
Tue 05:01:26 PM 46.9592 -110.2383 86° East 480 552 37,000 -98 Descending Salt Lake Center
Tue 05:02:28 PM 47.0164 -110.0536 66° East 502 578 36,900  Descending Salt Lake Center
Tue 05:03:30 PM 47.0569 -109.8606 73° East 501 577 37,000 48 Climbing Salt Lake Center
Tue 05:04:32 PM 47.0872 -109.6708 77° East 492 566 37,000  Level Salt Lake Center
Tue 05:05:33 PM 47.1164 -109.4783 77° East 480 552 37,000  Level Salt Lake Center
Tue 05:06:35 PM 47.1019 -109.2531 95° East 473 544 37,000  Level Salt Lake Center
Tue 05:07:37 PM 47.0817 -109.0583 99° East 484 557 37,000 48 Level Salt Lake Center
Tue 05:08:39 PM 47.0606 -108.8592 99° East 483 556 37,100  Climbing Salt Lake Center
Tue 05:09:41 PM 47.0400 -108.6686 99° East 491 565 37,000 -49 Descending Salt Lake Center
Tue 05:10:42 PM 47.0200 -108.4531 98° East 484 557 37,000  Level Salt Lake Center
Tue 05:11:44 PM 47.0019 -108.2619 98° East 491 565 37,000  Level Salt Lake Center
Tue 05:12:46 PM 46.9811 -108.0394 98° East 492 566 37,000  Level Salt Lake Center
Tue 05:13:48 PM 46.9606 -107.8506 99° East 491 565 37,000  Level Salt Lake Center
Tue 05:14:50 PM 46.9625 -107.6289 89° East 491 565 37,000  Level Salt Lake Center
Tue 05:15:51 PM 46.9669 -107.4361 88° East 494 568 37,000  Level Salt Lake Center
Tue 05:16:53 PM 46.9714 -107.2417 88° East 498 573 37,000  Level Salt Lake Center
Tue 05:17:55 PM 46.9769 -107.0128 88° East 502 578 37,000  Level Salt Lake Center
Tue 05:18:57 PM 46.9808 -106.8147 88° East 507 583 37,000  Level Salt Lake Center
Tue 05:19:59 PM 46.9856 -106.5847 88° East 507 583 37,000  Level Salt Lake Center
Tue 05:21:00 PM 46.9886 -106.3858 89° East 510 587 37,000  Level Salt Lake Center
Tue 05:22:02 PM 46.9919 -106.1839 89° East 511 588 37,000  Level Salt Lake Center
Tue 05:23:04 PM 46.9942 -105.9761 89° East 514 592 37,000  Level Salt Lake Center
Tue 05:24:06 PM 46.9969 -105.7264 89° East 514 592 37,000  Level Salt Lake Center
Tue 05:25:08 PM 46.9992 -105.5172 89° East 515 593 37,000  Level Salt Lake Center
Tue 05:26:10 PM 46.9997 -105.3100 90° East 513 590 37,000  Level Salt Lake Center
Tue 05:27:12 PM 47.0014 -105.1058 89° East 509 586 37,000  Level Salt Lake Center
Tue 05:28:14 PM 47.0025 -104.9019 89° East 505 581 37,000  Level Salt Lake Center
Tue 05:29:16 PM 47.0022 -104.6986 90° East 503 579 37,000  Level Salt Lake Center
Tue 05:30:17 PM 47.0028 -104.4553 90° East 502 578 37,000  Level Salt Lake Center
Tue 05:31:19 PM 47.0025 -104.2492 90° East 505 581 37,000  Level Salt Lake Center
Tue 05:32:21 PM 47.0031 -104.0442 90° East 508 585 37,000  Level Salt Lake Center
Tue 05:33:23 PM 47.0022 -103.8350 90° East 511 588 37,000  Level Salt Lake Center
Tue 05:34:25 PM 47.0011 -103.6225 90° East 517 595 37,000  Level Salt Lake Center
Tue 05:34:46 PM 47.0036 -103.5419 87° East 516 594 37,000  Level Minneapolis Center
Tue 05:35:48 PM 47.0017 -103.3306 91° East 521 600 37,000  Level Minneapolis Center
Tue 05:36:50 PM 46.9989 -103.1192 91° East 524 603 37,000  Level Minneapolis Center
Tue 05:37:52 PM 46.9964 -102.8647 91° East 525 604 37,000  Level Minneapolis Center
Tue 05:38:54 PM 46.9942 -102.6514 91° East 526 605 37,000  Level Minneapolis Center
Tue 05:39:56 PM 46.9900 -102.4406 92° East 524 603 37,000  Level Minneapolis Center
Tue 05:40:58 PM 46.9867 -102.2286 91° East 524 603 37,000  Level Minneapolis Center
Tue 05:42:00 PM 46.9811 -102.0178 92° East 521 600 37,000  Level Minneapolis Center
Tue 05:43:02 PM 46.9756 -101.7653 92° East 519 597 37,000  Level Minneapolis Center
Tue 05:44:04 PM 46.9706 -101.5703 92° East 522 601 37,000  Level Minneapolis Center
Tue 05:45:06 PM 46.9647 -101.3586 92° East 521 600 37,000  Level Minneapolis Center
Tue 05:46:08 PM 46.9572 -101.1058 92° East 519 597 37,000  Level Minneapolis Center
Tue 05:47:09 PM 46.9506 -100.8903 93° East 525 604 37,000  Level Minneapolis Center
Tue 05:48:12 PM 46.9425 -100.6811 93° East 521 600 37,000  Level Minneapolis Center
Tue 05:49:13 PM 46.9369 -100.4658 92° East 522 601 37,000  Level Minneapolis Center
Tue 05:50:15 PM 46.9286 -100.2514 93° East 527 606 37,000  Level Minneapolis Center
Tue 05:51:17 PM 46.9208 -100.0394 93° East 527 606 37,000  Level Minneapolis Center
Tue 05:52:19 PM 46.9119 -99.8267 93° East 526 605 37,000  Level Minneapolis Center
Tue 05:53:21 PM 46.9017 -99.5750 93° East 523 602 37,000  Level Minneapolis Center
Tue 05:54:23 PM 46.8914 -99.3667 94° East 519 597 37,000  Level Minneapolis Center
Tue 05:55:25 PM 46.8578 -99.1628 103° East 518 596 37,000  Level Minneapolis Center
Tue 05:56:27 PM 46.8231 -98.9603 104° East 516 594 37,000  Level Minneapolis Center
Tue 05:57:29 PM 46.7858 -98.7572 105° East 520 598 37,000  Level Minneapolis Center
Tue 05:58:31 PM 46.7503 -98.5542 104° East 521 600 37,000  Level Minneapolis Center
Tue 05:59:33 PM 46.7056 -98.3122 105° East 520 598 37,000  Level Minneapolis Center
Tue 06:00:37 PM 46.6686 -98.1111 105° East 520 598 37,000  Level Minneapolis Center
Tue 06:01:39 PM 46.6308 -97.9094 105° East 520 598 37,000  Level Minneapolis Center
Tue 06:02:41 PM 46.5931 -97.7064 105° East 523 602 37,000  Level Minneapolis Center
Tue 06:03:43 PM 46.5461 -97.4650 106° East 522 601 37,000  Level Minneapolis Center
Tue 06:04:45 PM 46.5067 -97.2619 106° East 525 604 37,000  Level Minneapolis Center
Tue 06:05:47 PM 46.4672 -97.0594 106° East 525 604 37,000  Level Minneapolis Center
Tue 06:06:49 PM 46.4275 -96.8572 106° East 526 605 37,000  Level Minneapolis Center
Tue 06:07:51 PM 46.3875 -96.6550 106° East 527 606 37,000  Level Minneapolis Center
Tue 06:08:53 PM 46.3467 -96.4517 106° East 527 606 37,000  Level Minneapolis Center
Tue 06:09:55 PM 46.2981 -96.2103 106° East 526 605 37,000  Level Minneapolis Center
Tue 06:10:57 PM 46.2550 -96.0075 107° East 527 606 37,000  Level Minneapolis Center
Tue 06:11:59 PM 46.2122 -95.7950 106° East 524 603 37,000  Level Minneapolis Center
Tue 06:13:01 PM 46.1694 -95.5897 107° East 530 610 37,000 -48 Level Minneapolis Center
Tue 06:14:03 PM 46.1261 -95.3869 107° East 531 611 36,900 -823 Descending Minneapolis Center
Tue 06:15:05 PM 46.0822 -95.1836 107° East 532 612 35,300 -1,984 Descending Minneapolis Center
Tue 06:16:07 PM 46.0342 -94.9569 107° East 532 612 32,800 -2,274 Descending Minneapolis Center
Tue 06:17:09 PM 45.9892 -94.7514 107° East 540 621 30,600 -2,129 Descending Minneapolis Center
Tue 06:18:11 PM 45.9439 -94.5450 107° East 543 625 28,400 -2,129 Descending Minneapolis Center
Tue 06:19:13 PM 45.8989 -94.3442 108° East 534 615 26,200 -2,371 Descending Minneapolis Center
Tue 06:20:15 PM 45.8475 -94.1139 108° East 512 589 23,500 -2,371 Descending Minneapolis Center
Tue 06:21:17 PM 45.8050 -93.9269 108° East 498 573 21,300 -2,129 Descending Minneapolis Center
Tue 06:22:19 PM 45.7614 -93.7461 109° East 486 559 19,100 -2,112 Descending Minneapolis Center
Tue 06:23:22 PM 45.6583 -93.6486 147° Southeast 449 517 16,900 -2,016 Descending Minneapolis Center
Tue 06:24:24 PM 45.5492 -93.5911 160° South 420 483 14,900 -1,694 Descending Minneapolis Center
Tue 06:25:26 PM 45.4394 -93.5308 159° South 422 486 13,400 -1,597 Descending Minneapolis Center
Tue 06:26:28 PM 45.3119 -93.4631 159° South 409 471 11,600 -1,161 Descending Minneapolis Center
Tue 06:27:30 PM 45.2056 -93.4064 159° South 411 473 11,000 -290 Descending Minneapolis Center
Tue 06:28:32 PM 45.1003 -93.3503 159° South 405 466 11,000 -435 Level Minneapolis Center
Tue 06:29:34 PM 45.0094 -93.2975 158° South 350 403 10,100 -1,161 Descending Minneapolis Center
Tue 06:30:36 PM 44.9547 -93.1831 124° Southeast 347 399 8,600 -1,597 Descending Minneapolis Center
Tue 06:31:38 PM 44.9094 -93.0706 120° Southeast 324 373 6,800 -1,548 Descending Minneapolis Center
Tue 06:32:40 PM 44.8803 -92.9636 111° Southeast 289 333 5,400 -1,355 Descending Minneapolis Center
Tue 06:33:42 PM 44.8167 -92.9544 174° South 238 274 4,000 -1,355 Descending Minneapolis Center

Login

Don't have an account? Register now (free) for customized features, flight alerts, and more!